Terminal Aerodrome Forecast
Issued by NWS Greer, SC

Home | Current Version | Previous Version | Text Only | Print | Product List | Glossary On
Versions: 1 2 3 4 5 6 7 8 9 10 11 12 13 14 15 16 17 18 19 20 21 22
000
FTUS42 KGSP 261723
TAFGSP
TAF
KGSP 261723Z 2618/2718 20009KT P6SM SCT035 SCT250
     FM270000 19005KT P6SM FEW250
     FM271400 20009KT P6SM BKN090
     FM271500 19010KT P6SM BKN015 PROB30 2715/2718 4SM -TSRA
      OVC007CB=

USA.gov is the U.S. government's official web portal to all federal, state and local government web resources and services.